Time;durP1;ratioP1;P1;durP2;ratioP2;P2;SDS_P1;SDS_P2;PMS_P1;PMS_P2;Temp;Humidity;BMP_temperature;BMP_pressure;BME280_temperature;BME280_humidity;BME280_pressure;Samples;Min_cycle;Max_cycle;Signal;HPM_P1;HPM_P2
2023/03/26 03:01:33;;;;;;;2.30;1.10;;;8.50;83.70;;;;;;5591485;23;20555;-66
2023/03/26 03:04:02;;;;;;;2.30;0.97;;;8.60;84.00;;;;;;4975895;28;20900;-66
2023/03/26 03:06:29;;;;;;;2.73;1.50;;;8.80;83.40;;;;;;4977534;28;20482;-66
2023/03/26 03:08:56;;;;;;;2.40;0.80;;;8.90;83.10;;;;;;4977271;28;20549;-67
2023/03/26 03:11:23;;;;;;;2.77;1.00;;;9.00;82.50;;;;;;4977250;28;20470;-66
2023/03/26 03:13:50;;;;;;;2.60;1.23;;;9.20;82.30;;;;;;5095125;23;21382;-73
2023/03/26 03:16:18;;;;;;;3.00;1.53;;;9.30;81.90;;;;;;4957734;29;20455;-74
2023/03/26 03:18:52;;;;;;;2.87;1.00;;;9.50;81.30;;;;;;4957376;29;20498;-73
2023/03/26 03:21:19;;;;;;;3.50;1.50;;;9.60;80.90;;;;;;4957487;29;20435;-73
2023/03/26 03:23:46;;;;;;;2.57;1.10;;;9.70;80.30;;;;;;4957992;28;20447;-73
2023/03/26 03:26:15;;;;;;;2.87;0.97;;;9.80;79.80;;;;;;4957338;29;20451;-73
2023/03/26 03:28:43;;;;;;;2.90;1.10;;;9.90;79.50;;;;;;4957243;29;20545;-73
2023/03/26 03:31:10;;;;;;;2.80;1.00;;;9.90;79.20;;;;;;4956966;29;20905;-73
2023/03/26 03:33:37;;;;;;;3.30;1.27;;;9.80;79.20;;;;;;4957153;28;20455;-73
2023/03/26 03:36:09;;;;;;;2.73;0.90;;;9.70;79.50;;;;;;4957398;29;20451;-74
2023/03/26 03:38:35;;;;;;;2.50;1.30;;;9.60;80.00;;;;;;4957154;28;20530;-73
2023/03/26 03:41:02;;;;;;;3.17;1.53;;;9.50;80.50;;;;;;4956990;29;20956;-73
2023/03/26 03:43:29;;;;;;;4.70;1.30;;;9.50;80.60;;;;;;4956949;28;20459;-74
2023/03/26 03:45:55;;;;;;;4.07;1.63;;;9.50;80.60;;;;;;4956689;29;21011;-74
2023/03/26 03:48:22;;;;;;;2.90;1.10;;;9.40;80.90;;;;;;4957136;29;20530;-74
2023/03/26 03:50:49;;;;;;;3.60;1.23;;;9.30;81.10;;;;;;4956860;29;20857;-73
2023/03/26 03:53:17;;;;;;;2.63;1.33;;;9.30;81.50;;;;;;4956799;29;20460;-73
2023/03/26 03:55:51;;;;;;;3.57;1.70;;;9.00;81.90;;;;;;4956652;28;20474;-74
2023/03/26 03:58:20;;;;;;;3.20;1.20;;;8.80;82.50;;;;;;4956761;29;20443;-74
2023/03/26 04:00:48;;;;;;;3.90;1.23;;;8.70;83.20;;;;;;4956648;29;20463;-73
2023/03/26 04:03:14;;;;;;;3.23;1.73;;;8.70;83.50;;;;;;4956652;29;20458;-73
2023/03/26 04:05:42;;;;;;;3.03;1.20;;;8.80;83.50;;;;;;4956447;28;20483;-74
2023/03/26 04:08:09;;;;;;;5.20;1.10;;;8.80;83.10;;;;;;4956464;29;20478;-74
2023/03/26 04:10:37;;;;;;;3.33;1.00;;;9.00;82.80;;;;;;4956464;29;20463;-73
2023/03/26 04:13:04;;;;;;;2.93;1.27;;;9.00;82.10;;;;;;4956432;29;20522;-74
2023/03/26 04:15:30;;;;;;;3.50;1.37;;;9.20;82.10;;;;;;4955577;28;20574;-74
2023/03/26 04:17:57;;;;;;;4.53;1.33;;;9.10;81.10;;;;;;4956303;29;20519;-74
2023/03/26 04:20:24;;;;;;;2.97;1.47;;;9.20;81.20;;;;;;4956260;29;20447;-73
2023/03/26 04:22:51;;;;;;;2.93;1.30;;;9.40;81.00;;;;;;4956519;29;20455;-73
2023/03/26 04:25:18;;;;;;;2.77;1.40;;;9.50;80.70;;;;;;4956229;28;20476;-74
2023/03/26 04:27:47;;;;;;;2.90;1.13;;;9.70;80.30;;;;;;4956188;29;20578;-73
2023/03/26 04:30:19;;;;;;;3.60;1.40;;;9.80;79.80;;;;;;4956139;29;20454;-74
2023/03/26 04:32:47;;;;;;;4.53;1.27;;;9.90;79.50;;;;;;4956215;29;20494;-73
2023/03/26 04:35:16;;;;;;;2.47;1.20;;;10.00;79.20;;;;;;4955906;28;20483;-73
2023/03/26 04:37:44;;;;;;;3.30;1.30;;;10.10;79.10;;;;;;4956021;29;20542;-74
2023/03/26 04:40:14;;;;;;;3.07;1.27;;;10.10;79.20;;;;;;4955917;29;20455;-74
2023/03/26 04:42:44;;;;;;;3.07;1.00;;;10.10;79.00;;;;;;4955903;29;20455;-73
2023/03/26 04:45:13;;;;;;;2.67;1.03;;;10.10;78.60;;;;;;4955865;28;20479;-73
2023/03/26 04:47:40;;;;;;;3.47;1.27;;;10.10;78.70;;;;;;4955901;28;20487;-74
2023/03/26 04:50:09;;;;;;;2.83;1.10;;;10.10;78.20;;;;;;4955710;29;20518;-73
2023/03/26 04:52:36;;;;;;;4.87;1.30;;;10.10;78.50;;;;;;4955692;29;20447;-73
2023/03/26 04:55:03;;;;;;;3.30;1.63;;;10.10;78.40;;;;;;4955704;28;20471;-74
2023/03/26 04:57:35;;;;;;;3.87;1.40;;;9.90;78.20;;;;;;4955670;29;20463;-73
2023/03/26 05:00:15;;;;;;;5.13;1.70;;;10.00;78.40;;;;;;4955940;29;20435;-73
2023/03/26 05:02:44;;;;;;;5.33;1.50;;;9.80;78.80;;;;;;4955610;29;20435;-73
2023/03/26 05:05:11;;;;;;;4.17;1.47;;;9.90;78.40;;;;;;4955119;28;20846;-73
2023/03/26 05:07:38;;;;;;;3.37;1.20;;;9.80;78.40;;;;;;4955402;29;20545;-74
2023/03/26 05:10:06;;;;;;;2.63;1.30;;;9.80;78.60;;;;;;4955151;29;20464;-74
2023/03/26 05:12:33;;;;;;;3.03;1.17;;;9.90;78.50;;;;;;4955069;28;20852;-73
2023/03/26 05:15:00;;;;;;;4.43;1.97;;;9.90;77.90;;;;;;4955040;28;20487;-74
2023/03/26 05:17:29;;;;;;;3.20;1.27;;;10.00;77.90;;;;;;4955349;29;20455;-73
2023/03/26 05:19:57;;;;;;;2.90;1.27;;;10.10;77.80;;;;;;4955343;29;20451;-73
2023/03/26 05:22:24;;;;;;;4.03;1.57;;;10.20;77.80;;;;;;4954897;29;20456;-73
2023/03/26 05:24:51;;;;;;;2.80;1.30;;;10.20;77.60;;;;;;4955184;28;20530;-74
2023/03/26 05:27:19;;;;;;;2.40;1.33;;;10.20;77.30;;;;;;4954380;28;20459;-73
2023/03/26 05:29:46;;;;;;;2.20;0.97;;;10.10;77.40;;;;;;4954878;28;20451;-74
2023/03/26 05:32:12;;;;;;;2.50;1.10;;;10.00;77.60;;;;;;4955108;28;20542;-73
2023/03/26 05:34:40;;;;;;;3.70;1.40;;;9.80;78.20;;;;;;4954980;28;20467;-74
2023/03/26 05:37:08;;;;;;;2.87;1.73;;;9.70;78.80;;;;;;4955642;29;20501;-74
2023/03/26 05:39:35;;;;;;;5.80;2.60;;;9.60;79.40;;;;;;4955375;28;20537;-74
2023/03/26 05:42:02;;;;;;;3.03;1.17;;;9.50;79.40;;;;;;4954993;29;20506;-74
2023/03/26 05:44:29;;;;;;;3.07;1.53;;;9.60;79.00;;;;;;4955117;28;20860;-74
2023/03/26 05:46:55;;;;;;;3.60;1.17;;;9.60;79.10;;;;;;4955096;29;20831;-74
2023/03/26 05:49:22;;;;;;;3.00;1.70;;;9.70;79.50;;;;;;4954924;29;20902;-74
2023/03/26 05:51:49;;;;;;;2.93;1.23;;;9.90;79.10;;;;;;4954906;29;20447;-73
2023/03/26 05:54:17;;;;;;;3.07;1.67;;;10.00;79.10;;;;;;4954602;28;20475;-73
2023/03/26 05:56:44;;;;;;;2.97;1.40;;;10.10;78.70;;;;;;4954567;29;20479;-73
2023/03/26 05:59:10;;;;;;;3.20;1.27;;;10.00;78.50;;;;;;4954837;29;20447;-74
2023/03/26 06:01:37;;;;;;;2.67;1.30;;;10.00;78.10;;;;;;4954940;29;20447;-73
2023/03/26 06:04:04;;;;;;;2.67;1.13;;;10.00;78.50;;;;;;4954417;28;20878;-74
2023/03/26 06:06:30;;;;;;;2.73;1.43;;;10.10;78.20;;;;;;4954772;29;20513;-74
2023/03/26 06:08:57;;;;;;;2.80;1.60;;;10.20;78.00;;;;;;4954724;29;20636;-73
2023/03/26 06:11:25;;;;;;;2.90;1.40;;;10.00;77.90;;;;;;4954758;29;20455;-73
2023/03/26 06:13:52;;;;;;;4.40;1.83;;;10.00;77.60;;;;;;4954603;28;20512;-74
2023/03/26 06:16:18;;;;;;;2.70;1.37;;;9.90;78.00;;;;;;4954778;29;20518;-73
2023/03/26 06:18:45;;;;;;;3.03;1.43;;;10.00;78.00;;;;;;4955014;28;20443;-73
2023/03/26 06:21:12;;;;;;;2.97;1.40;;;10.10;78.20;;;;;;4954657;29;20459;-73
2023/03/26 06:23:39;;;;;;;3.53;1.50;;;10.10;77.40;;;;;;4954535;28;20805;-73
2023/03/26 06:26:05;;;;;;;4.47;1.50;;;9.90;77.60;;;;;;4954663;29;20522;-74
2023/03/26 06:28:34;;;;;;;2.50;1.10;;;9.90;81.00;;;;;;4954587;29;20582;-74
2023/03/26 06:31:01;;;;;;;3.33;1.50;;;9.90;80.50;;;;;;4954611;29;20455;-74
2023/03/26 06:33:28;;;;;;;4.20;1.60;;;10.00;79.90;;;;;;4954440;28;20502;-73
2023/03/26 06:35:55;;;;;;;5.20;1.40;;;9.80;78.30;;;;;;4954785;29;20459;-74
2023/03/26 06:38:21;;;;;;;4.10;1.10;;;9.80;78.90;;;;;;4955272;28;20471;-74
2023/03/26 06:40:48;;;;;;;5.23;1.70;;;9.80;78.40;;;;;;4958079;29;20509;-73
2023/03/26 06:43:15;;;;;;;2.90;1.27;;;9.50;79.00;;;;;;4957894;29;20518;-73
2023/03/26 06:45:43;;;;;;;4.57;2.00;;;9.40;79.80;;;;;;4957953;28;20466;-72
2023/03/26 06:48:09;;;;;;;2.73;1.27;;;9.50;80.00;;;;;;4957888;29;20537;-73
2023/03/26 06:50:36;;;;;;;3.47;1.60;;;9.40;80.60;;;;;;4957598;29;20948;-73
2023/03/26 06:53:03;;;;;;;3.17;1.40;;;9.50;80.10;;;;;;4957955;29;20529;-73
2023/03/26 06:55:30;;;;;;;3.13;1.57;;;9.50;79.90;;;;;;4957792;28;20464;-74
2023/03/26 06:57:57;;;;;;;4.00;1.63;;;9.30;78.70;;;;;;4957799;29;20447;-74
2023/03/26 07:00:24;;;;;;;2.70;1.30;;;9.30;78.80;;;;;;4957717;29;20451;-73
2023/03/26 07:02:52;;;;;;;2.90;1.80;;;9.00;79.00;;;;;;4957693;29;20447;-73
2023/03/26 07:05:19;;;;;;;3.07;1.50;;;9.10;79.50;;;;;;4957636;28;20467;-73
2023/03/26 07:07:46;;;;;;;2.80;1.40;;;9.20;79.40;;;;;;4957622;29;20478;-74
2023/03/26 07:10:12;;;;;;;3.93;1.80;;;9.30;79.60;;;;;;4957655;29;20522;-74
2023/03/26 07:12:40;;;;;;;3.70;1.33;;;9.40;79.00;;;;;;4957560;29;20542;-74
2023/03/26 07:15:08;;;;;;;3.27;1.40;;;9.50;78.50;;;;;;4957420;28;20483;-74
2023/03/26 07:17:35;;;;;;;3.20;1.20;;;9.50;79.20;;;;;;4957534;28;20450;-74
2023/03/26 07:20:03;;;;;;;2.97;1.13;;;9.50;78.10;;;;;;4957522;29;20514;-74
2023/03/26 07:22:30;;;;;;;2.87;1.20;;;9.40;79.10;;;;;;4957408;28;20518;-74
2023/03/26 07:24:57;;;;;;;2.50;1.27;;;9.40;78.80;;;;;;4956997;28;20471;-74
2023/03/26 07:27:45;;;;;;;3.07;1.60;;;9.20;80.10;;;;;;4957418;29;20479;-74
2023/03/26 07:30:15;;;;;;;3.80;1.23;;;9.10;80.70;;;;;;4957083;28;20766;-74
2023/03/26 07:32:50;;;;;;;3.57;1.17;;;9.10;80.70;;;;;;4957196;29;20451;-73
2023/03/26 07:35:23;;;;;;;3.03;1.60;;;9.20;81.70;;;;;;4956849;28;20533;-74
2023/03/26 07:37:59;;;;;;;4.83;1.30;;;9.30;81.70;;;;;;4956904;29;20829;-74
2023/03/26 07:40:43;;;;;;;3.20;1.13;;;9.00;81.90;;;;;;4957095;29;20808;-74
2023/03/26 07:43:23;;;;;;;2.77;1.03;;;8.90;82.90;;;;;;4957073;29;20450;-74
2023/03/26 07:45:51;;;;;;;5.33;2.20;;;8.70;83.70;;;;;;4956984;28;20492;-75
2023/03/26 07:48:19;;;;;;;2.70;1.50;;;8.60;85.90;;;;;;4956886;29;20479;-75
2023/03/26 07:50:48;;;;;;;4.70;1.70;;;8.70;85.40;;;;;;4956194;28;20923;-75
2023/03/26 07:53:16;;;;;;;3.63;1.43;;;8.70;85.40;;;;;;4956751;29;20491;-74
2023/03/26 07:55:50;;;;;;;4.87;1.57;;;8.60;86.00;;;;;;4956706;28;20554;-74
2023/03/26 07:58:37;;;;;;;2.63;1.60;;;8.60;86.50;;;;;;4956795;29;20514;-73
2023/03/26 08:01:09;;;;;;;3.90;1.70;;;8.60;86.70;;;;;;4956695;29;20443;-73
2023/03/26 08:04:01;;;;;;;3.27;1.50;;;8.70;86.40;;;;;;4956868;28;20435;-73
2023/03/26 08:06:34;;;;;;;3.17;1.50;;;8.80;86.30;;;;;;4956644;29;20435;-72
2023/03/26 08:09:12;;;;;;;5.43;3.07;;;8.50;87.20;;;;;;4956826;29;20477;-73
2023/03/26 08:11:47;;;;;;;3.70;1.50;;;8.50;88.10;;;;;;4956660;29;20433;-72
2023/03/26 08:14:33;;;;;;;3.47;1.50;;;8.60;88.10;;;;;;4956133;28;21057;-73
2023/03/26 08:17:05;;;;;;;4.40;1.60;;;8.50;89.00;;;;;;4956575;28;20463;-73
2023/03/26 08:19:56;;;;;;;3.07;1.67;;;8.30;89.30;;;;;;4956188;29;20937;-72
2023/03/26 08:22:29;;;;;;;4.37;1.60;;;8.20;90.20;;;;;;4956432;29;20447;-73
2023/03/26 08:25:16;;;;;;;5.53;1.73;;;8.30;90.80;;;;;;4956388;28;20545;-73
2023/03/26 08:27:51;;;;;;;2.97;1.60;;;8.60;90.40;;;;;;4956383;28;20471;-72
2023/03/26 08:30:20;;;;;;;2.80;1.70;;;8.70;89.10;;;;;;4956271;29;20470;-72
2023/03/26 08:32:55;;;;;;;3.50;1.47;;;8.70;88.60;;;;;;4956194;29;20468;-72
2023/03/26 08:35:22;;;;;;;3.47;1.33;;;8.50;90.00;;;;;;4955833;28;20569;-73
2023/03/26 08:37:50;;;;;;;6.10;1.60;;;8.50;90.50;;;;;;4956258;29;20454;-73
2023/03/26 08:40:35;;;;;;;2.67;1.43;;;8.70;90.80;;;;;;4955819;29;20944;-73
2023/03/26 08:43:30;;;;;;;4.30;2.10;;;8.80;89.60;;;;;;4956108;29;20845;-73
2023/03/26 08:46:24;;;;;;;4.87;1.70;;;8.90;89.90;;;;;;4955754;29;20912;-73
2023/03/26 08:49:02;;;;;;;8.13;2.00;;;9.10;89.70;;;;;;4955928;29;20510;-74
2023/03/26 08:51:50;;;;;;;4.63;1.50;;;9.30;90.10;;;;;;4955967;29;20435;-73
2023/03/26 08:55:05;;;;;;;3.90;1.53;;;9.30;89.00;;;;;;4956098;28;20518;-73
2023/03/26 08:58:02;;;;;;;3.40;1.70;;;9.20;89.20;;;;;;4955818;29;20454;-74
2023/03/26 09:00:57;;;;;;;2.57;1.33;;;9.10;89.80;;;;;;4955907;29;20432;-74
2023/03/26 09:03:49;;;;;;;3.17;1.30;;;9.20;89.90;;;;;;4934004;28;20447;-73
2023/03/26 09:06:41;;;;;;;3.23;1.60;;;9.00;90.80;;;;;;4955742;29;20470;-73
2023/03/26 09:09:41;;;;;;;5.30;1.10;;;8.90;91.10;;;;;;4955589;29;20542;-73
2023/03/26 09:12:27;;;;;;;2.53;1.30;;;8.80;91.60;;;;;;4957915;29;20447;-75
2023/03/26 09:15:48;;;;;;;3.27;1.50;;;9.00;92.10;;;;;;4957460;28;20490;-74
2023/03/26 09:18:42;;;;;;;2.33;1.20;;;9.30;91.00;;;;;;4958095;29;20435;-74
2023/03/26 09:21:36;;;;;;;3.40;1.33;;;9.40;89.60;;;;;;4957569;29;20443;-74
2023/03/26 09:24:36;;;;;;;3.33;1.17;;;9.60;90.80;;;;;;4957635;28;20467;-73
2023/03/26 09:27:19;;;;;;;3.60;1.20;;;9.60;90.30;;;;;;4957006;29;20451;-74
2023/03/26 09:30:22;;;;;;;2.20;1.13;;;9.70;90.60;;;;;;4957381;29;20475;-74
2023/03/26 09:33:20;;;;;;;3.00;1.10;;;9.70;90.30;;;;;;4997935;23;20478;-69
2023/03/26 09:36:21;;;;;;;3.40;1.23;;;10.10;91.20;;;;;;4976183;28;20458;-69
2023/03/26 09:38:53;;;;;;;2.57;1.00;;;10.60;89.80;;;;;;4977058;28;20449;-69
2023/03/26 09:41:35;;;;;;;2.23;0.90;;;10.80;86.60;;;;;;4978046;28;20545;-70
2023/03/26 09:44:37;;;;;;;2.80;1.30;;;11.10;88.00;;;;;;4979041;28;20434;-68
2023/03/26 09:47:38;;;;;;;3.13;1.20;;;11.30;84.70;;;;;;4978084;28;20489;-69
2023/03/26 09:50:25;;;;;;;2.50;0.90;;;11.50;84.50;;;;;;4977657;28;20489;-69
2023/03/26 09:53:14;;;;;;;2.30;1.10;;;11.50;85.40;;;;;;4977055;28;20477;-68
2023/03/26 09:56:08;;;;;;;2.03;1.00;;;12.00;87.50;;;;;;4977756;28;20533;-69
2023/03/26 09:59:03;;;;;;;2.23;0.83;;;12.30;83.90;;;;;;4976988;28;20434;-68
2023/03/26 10:01:40;;;;;;;2.40;0.80;;;12.70;81.80;;;;;;4976749;28;20998;-68
2023/03/26 10:04:39;;;;;;;2.00;0.70;;;12.70;77.20;;;;;;4974908;28;20437;-67
2023/03/26 10:07:17;;;;;;;3.23;0.90;;;12.20;78.00;;;;;;4969907;28;20577;-67
2023/03/26 10:09:53;;;;;;;2.37;0.90;;;12.20;77.10;;;;;;4974450;28;20470;-67
2023/03/26 10:12:28;;;;;;;2.50;1.00;;;12.10;78.90;;;;;;4974278;28;20477;-68
2023/03/26 10:15:08;;;;;;;2.80;1.00;;;12.10;78.00;;;;;;4977906;28;20481;-68
2023/03/26 10:17:50;;;;;;;2.00;0.80;;;12.00;78.10;;;;;;4978005;28;20860;-67
2023/03/26 10:20:33;;;;;;;2.40;0.73;;;12.30;80.10;;;;;;4978289;28;20426;-67
2023/03/26 10:23:13;;;;;;;2.00;0.70;;;12.50;75.90;;;;;;4978009;28;20895;-67
2023/03/26 10:25:56;;;;;;;1.90;0.70;;;12.40;74.90;;;;;;4978115;28;20431;-67
2023/03/26 10:28:36;;;;;;;1.90;0.70;;;12.40;75.20;;;;;;4977731;28;20911;-68
2023/03/26 10:31:18;;;;;;;3.80;0.90;;;12.50;73.50;;;;;;4977669;28;20500;-67
2023/03/26 10:33:56;;;;;;;2.20;0.97;;;12.40;72.70;;;;;;4977788;28;20900;-67
2023/03/26 10:36:30;;;;;;;2.00;0.80;;;12.40;73.20;;;;;;4977825;28;20434;-67
2023/03/26 10:39:11;;;;;;;2.80;0.80;;;12.20;70.60;;;;;;4977792;28;20430;-66
2023/03/26 10:41:49;;;;;;;2.17;0.80;;;12.10;71.90;;;;;;4977575;28;20481;-67
2023/03/26 10:44:46;;;;;;;2.10;0.97;;;12.30;70.40;;;;;;4977367;28;20930;-67
2023/03/26 10:47:48;;;;;;;3.13;1.20;;;12.40;71.90;;;;;;4940465;28;20511;-67
2023/03/26 10:50:26;;;;;;;2.20;0.90;;;12.80;72.00;;;;;;4955872;28;20501;-68
2023/03/26 10:52:58;;;;;;;1.90;0.70;;;13.10;69.90;;;;;;4977470;28;20896;-67
2023/03/26 10:55:31;;;;;;;2.17;0.83;;;13.30;68.90;;;;;;4977670;28;20435;-67
2023/03/26 10:58:03;;;;;;;2.33;0.70;;;13.20;69.90;;;;;;4977240;28;20439;-68
2023/03/26 11:00:30;;;;;;;2.00;0.93;;;13.20;68.90;;;;;;4981179;28;20438;-68
2023/03/26 11:03:32;;;;;;;1.93;0.70;;;13.20;69.90;;;;;;4981974;28;20470;-68
2023/03/26 11:06:10;;;;;;;2.30;0.80;;;13.20;67.10;;;;;;4981936;28;20457;-68
2023/03/26 11:08:46;;;;;;;1.90;0.70;;;13.20;66.60;;;;;;4981524;28;20465;-67
2023/03/26 11:11:22;;;;;;;1.90;0.67;;;13.00;66.50;;;;;;4981065;28;20458;-68
2023/03/26 11:13:57;;;;;;;1.90;0.80;;;13.00;64.90;;;;;;4980888;28;20445;-69
2023/03/26 11:16:32;;;;;;;2.40;0.83;;;13.20;65.00;;;;;;4980688;28;20425;-68
2023/03/26 11:19:04;;;;;;;2.70;0.70;;;13.40;64.90;;;;;;4981319;28;20465;-68
2023/03/26 11:21:39;;;;;;;2.00;0.83;;;13.20;65.60;;;;;;4980861;28;20481;-68
2023/03/26 11:24:27;;;;;;;1.90;0.70;;;13.10;66.20;;;;;;4981712;28;20429;-67
2023/03/26 11:26:55;;;;;;;2.10;0.90;;;12.90;65.90;;;;;;4980893;28;20509;-68
2023/03/26 11:29:43;;;;;;;1.90;0.70;;;13.20;66.30;;;;;;4980473;28;20486;-68
2023/03/26 11:32:12;;;;;;;2.30;0.73;;;13.40;63.80;;;;;;4980634;28;20486;-69
2023/03/26 11:34:42;;;;;;;2.10;0.90;;;13.60;63.00;;;;;;4980186;28;20444;-68
2023/03/26 11:37:18;;;;;;;2.20;0.80;;;13.60;62.00;;;;;;4980835;28;20442;-68
2023/03/26 11:39:50;;;;;;;2.20;0.77;;;13.70;62.10;;;;;;4979965;28;20434;-68
2023/03/26 11:42:21;;;;;;;1.90;0.70;;;13.80;60.40;;;;;;4978222;28;20471;-66
2023/03/26 11:44:52;;;;;;;2.00;0.90;;;13.80;61.20;;;;;;4976235;28;20462;-66
2023/03/26 11:47:23;;;;;;;1.97;0.77;;;13.70;60.30;;;;;;4976538;28;20431;-66
2023/03/26 11:49:53;;;;;;;2.23;0.87;;;13.80;61.40;;;;;;4976861;28;20520;-66
2023/03/26 11:52:21;;;;;;;2.00;0.70;;;14.00;59.30;;;;;;4976421;28;20465;-67
2023/03/26 11:54:49;;;;;;;2.30;0.90;;;14.10;57.50;;;;;;4976462;28;20828;-67
2023/03/26 11:57:20;;;;;;;2.30;0.90;;;14.10;58.90;;;;;;4976378;28;20454;-65
2023/03/26 11:59:53;;;;;;;2.30;0.80;;;14.40;59.00;;;;;;4976359;28;20430;-66
2023/03/26 12:02:27;;;;;;;2.20;0.80;;;14.70;57.60;;;;;;4976262;28;20474;-66
2023/03/26 12:05:10;;;;;;;1.97;0.70;;;15.10;56.10;;;;;;4976240;28;20434;-67
2023/03/26 12:07:45;;;;;;;2.40;0.83;;;15.30;56.10;;;;;;4975816;28;20431;-68
2023/03/26 12:10:22;;;;;;;2.00;0.80;;;15.50;55.30;;;;;;4976089;28;20469;-65
2023/03/26 12:12:51;;;;;;;2.37;0.90;;;15.40;53.70;;;;;;4975979;28;20474;-67
2023/03/26 12:15:20;;;;;;;2.00;0.80;;;15.10;54.30;;;;;;4975967;28;20524;-68
2023/03/26 12:17:51;;;;;;;2.23;0.87;;;15.30;55.50;;;;;;4975633;28;21014;-68
2023/03/26 12:20:41;;;;;;;2.00;1.00;;;15.50;54.90;;;;;;4975639;28;20467;-67
2023/03/26 12:23:38;;;;;;;2.57;1.20;;;15.60;53.00;;;;;;4973111;28;21122;-67
2023/03/26 12:26:13;;;;;;;2.23;0.90;;;15.70;51.80;;;;;;4976094;28;20489;-66
2023/03/26 12:28:45;;;;;;;2.20;0.90;;;15.70;53.00;;;;;;4975792;28;20469;-65
2023/03/26 12:31:17;;;;;;;2.00;0.80;;;15.70;50.60;;;;;;4975103;28;20501;-67
2023/03/26 12:33:44;;;;;;;2.10;0.83;;;15.40;52.40;;;;;;4975648;28;20450;-66
2023/03/26 12:36:22;;;;;;;3.10;0.90;;;15.40;51.80;;;;;;4975361;28;20455;-67
2023/03/26 12:38:50;;;;;;;2.30;1.00;;;15.30;52.80;;;;;;4975582;28;20444;-66
2023/03/26 12:41:18;;;;;;;2.20;0.90;;;15.60;52.50;;;;;;4975345;28;20470;-67
2023/03/26 12:43:47;;;;;;;2.27;1.07;;;15.70;51.80;;;;;;4975404;28;20449;-69
2023/03/26 12:46:23;;;;;;;2.33;0.80;;;15.90;52.00;;;;;;4975371;28;20450;-73
2023/03/26 12:48:52;;;;;;;3.80;1.03;;;16.00;51.90;;;;;;4975044;28;20915;-70
2023/03/26 12:51:30;;;;;;;2.13;0.80;;;16.30;51.00;;;;;;4975351;28;20580;-74
2023/03/26 12:54:15;;;;;;;1.90;0.70;;;16.60;50.00;;;;;;4975647;28;20454;-75
2023/03/26 12:56:51;;;;;;;2.27;0.97;;;16.60;51.00;;;;;;4975189;28;20439;-68
2023/03/26 12:59:32;;;;;;;2.10;0.80;;;16.50;50.40;;;;;;4974941;28;20856;-68
2023/03/26 13:02:09;;;;;;;2.40;1.10;;;16.40;50.80;;;;;;4975030;28;20569;-68
2023/03/26 13:04:52;;;;;;;4.20;1.10;;;16.20;50.00;;;;;;4975101;28;20816;-69
2023/03/26 13:07:26;;;;;;;2.20;1.20;;;16.00;50.60;;;;;;4975468;28;20533;-69
2023/03/26 13:10:29;;;;;;;1.90;0.70;;;15.80;50.50;;;;;;4975438;28;20477;-68
2023/03/26 13:13:10;;;;;;;2.47;0.80;;;16.00;51.30;;;;;;4975054;28;20485;-69
2023/03/26 13:15:40;;;;;;;1.90;0.73;;;16.10;49.60;;;;;;4974729;28;20990;-70
2023/03/26 13:18:20;;;;;;;2.53;0.70;;;16.40;49.30;;;;;;4975583;28;20446;-69
2023/03/26 13:20:56;;;;;;;3.10;0.93;;;16.70;47.40;;;;;;4975004;28;20434;-68
2023/03/26 13:23:33;;;;;;;2.20;0.80;;;16.60;46.60;;;;;;4974529;28;20912;-69
2023/03/26 13:26:14;;;;;;;2.50;0.90;;;16.70;46.20;;;;;;4974792;28;20438;-69
2023/03/26 13:28:51;;;;;;;2.20;1.00;;;17.10;47.10;;;;;;4974782;28;20489;-69
2023/03/26 13:31:21;;;;;;;2.20;0.80;;;17.50;45.70;;;;;;4974412;28;20912;-68
2023/03/26 13:33:56;;;;;;;2.17;0.80;;;17.40;45.60;;;;;;4974614;28;20485;-68
2023/03/26 13:36:33;;;;;;;2.00;0.90;;;17.00;46.60;;;;;;4974572;28;20430;-68
2023/03/26 13:39:13;;;;;;;2.03;0.80;;;16.60;47.20;;;;;;4974625;28;20502;-69
2023/03/26 13:41:55;;;;;;;2.20;0.90;;;16.30;47.20;;;;;;4974185;28;21005;-69
2023/03/26 13:44:32;;;;;;;2.10;1.00;;;16.00;48.50;;;;;;4974523;28;20493;-68
2023/03/26 13:47:00;;;;;;;2.87;0.90;;;15.50;48.90;;;;;;4974549;28;20430;-69
2023/03/26 13:49:36;;;;;;;2.40;0.80;;;15.40;48.90;;;;;;4973837;28;20506;-72
2023/03/26 13:52:08;;;;;;;2.47;0.80;;;15.20;49.30;;;;;;4974126;28;20866;-69
2023/03/26 13:54:39;;;;;;;3.13;0.90;;;14.90;49.70;;;;;;4974440;28;20538;-68
2023/03/26 13:57:14;;;;;;;2.30;0.80;;;15.00;51.20;;;;;;4974420;28;20462;-68
2023/03/26 13:59:47;;;;;;;2.00;0.80;;;15.10;50.30;;;;;;4975424;28;20434;-69
2023/03/26 14:02:21;;;;;;;2.37;0.90;;;15.20;50.80;;;;;;4976636;28;20493;-69
2023/03/26 14:04:52;;;;;;;2.37;0.90;;;15.20;50.30;;;;;;4976192;28;20484;-69
2023/03/26 14:07:23;;;;;;;2.30;0.80;;;15.20;50.70;;;;;;4974977;28;20912;-68
2023/03/26 14:09:56;;;;;;;4.83;1.27;;;15.00;50.30;;;;;;4974348;28;20430;-67
2023/03/26 14:12:47;;;;;;;2.50;0.80;;;14.70;53.10;;;;;;4974235;28;20465;-68
2023/03/26 14:15:18;;;;;;;2.90;1.07;;;14.00;56.90;;;;;;4974661;28;20506;-67
2023/03/26 14:17:49;;;;;;;3.17;1.00;;;13.60;59.50;;;;;;4974690;28;20434;-67
2023/03/26 14:20:32;;;;;;;2.60;1.00;;;13.20;64.20;;;;;;4974625;28;20496;-68
2023/03/26 14:23:16;;;;;;;2.97;1.10;;;12.80;67.10;;;;;;4974558;28;20470;-69
2023/03/26 14:25:56;;;;;;;4.93;1.10;;;12.30;70.10;;;;;;4974599;28;20485;-69
2023/03/26 14:29:13;;;;;;;4.30;1.00;;;11.70;72.90;;;;;;4974150;28;20920;-68
2023/03/26 14:31:46;;;;;;;2.77;0.80;;;11.20;76.90;;;;;;4974252;28;20545;-68
2023/03/26 14:34:28;;;;;;;2.70;1.10;;;11.00;79.10;;;;;;4974530;28;20494;-67
2023/03/26 14:37:20;;;;;;;2.87;0.80;;;10.90;79.10;;;;;;4974231;28;20478;-67
2023/03/26 14:40:00;;;;;;;2.40;1.07;;;10.90;79.10;;;;;;4974097;28;20442;-67
2023/03/26 14:42:37;;;;;;;2.10;0.80;;;10.80;79.40;;;;;;4973987;28;20470;-68
2023/03/26 14:45:35;;;;;;;2.23;1.00;;;10.90;78.80;;;;;;4974035;28;20434;-67
2023/03/26 14:48:26;;;;;;;2.30;1.00;;;10.90;78.70;;;;;;4973513;28;20461;-67
2023/03/26 14:51:06;;;;;;;2.30;1.07;;;11.10;78.80;;;;;;4973838;28;20565;-67
2023/03/26 14:53:35;;;;;;;2.33;0.93;;;11.30;78.40;;;;;;4975078;28;20490;-67
2023/03/26 14:56:42;;;;;;;2.40;1.20;;;11.40;78.30;;;;;;4974063;28;20500;-68
2023/03/26 14:59:42;;;;;;;2.10;0.90;;;11.60;78.30;;;;;;4974618;28;20450;-67
2023/03/26 15:02:52;;;;;;;2.13;0.83;;;11.80;77.70;;;;;;4977613;28;20466;-68
2023/03/26 15:05:45;;;;;;;2.23;0.90;;;11.80;77.10;;;;;;4977209;28;20847;-69
2023/03/26 15:08:47;;;;;;;2.47;0.70;;;11.80;76.60;;;;;;4977449;28;20439;-68
2023/03/26 15:11:23;;;;;;;4.60;0.80;;;11.60;76.90;;;;;;4977366;28;20580;-67
2023/03/26 15:14:01;;;;;;;2.20;1.00;;;11.70;77.80;;;;;;4977338;28;20430;-68
2023/03/26 15:17:12;;;;;;;1.90;0.90;;;11.70;78.30;;;;;;4977373;28;20532;-68
2023/03/26 15:20:21;;;;;;;3.00;0.70;;;11.50;77.10;;;;;;4977576;28;20482;-67
2023/03/26 15:23:25;;;;;;;2.13;0.80;;;11.40;78.50;;;;;;4977141;28;20529;-68
2023/03/26 15:26:35;;;;;;;3.37;0.90;;;11.40;78.30;;;;;;4977219;28;20449;-67
2023/03/26 15:29:26;;;;;;;2.50;0.80;;;11.20;79.80;;;;;;4977204;28;20462;-67
2023/03/26 15:32:29;;;;;;;2.10;0.80;;;11.00;79.50;;;;;;5000402;23;20555;-69
2023/03/26 15:35:31;;;;;;;2.20;0.70;;;11.00;79.70;;;;;;4972510;28;20446;-72
2023/03/26 15:38:43;;;;;;;2.40;0.70;;;10.80;78.80;;;;;;4976599;28;20430;-70
2023/03/26 15:41:16;;;;;;;1.90;0.67;;;10.70;79.10;;;;;;4970944;28;20461;-70
2023/03/26 15:44:20;;;;;;;2.10;0.70;;;10.60;79.20;;;;;;4976501;28;20481;-70
2023/03/26 15:47:17;;;;;;;1.87;0.60;;;10.30;78.90;;;;;;4976419;28;20450;-70
2023/03/26 15:49:51;;;;;;;2.13;0.70;;;10.10;79.40;;;;;;4976400;28;20865;-70
2023/03/26 15:52:27;;;;;;;4.00;0.80;;;9.70;78.80;;;;;;4976303;28;20485;-70
2023/03/26 15:55:00;;;;;;;2.10;0.70;;;9.60;80.30;;;;;;4976370;28;20449;-71
2023/03/26 15:57:31;;;;;;;2.03;0.80;;;9.50;80.90;;;;;;4976480;28;20434;-70
2023/03/26 16:00:14;;;;;;;2.13;0.70;;;9.40;81.00;;;;;;4976888;28;20439;-70
2023/03/26 16:02:49;;;;;;;1.90;0.70;;;9.30;81.90;;;;;;4976148;28;20470;-70
2023/03/26 16:05:35;;;;;;;2.50;0.70;;;9.40;81.50;;;;;;4976166;28;20508;-70
2023/03/26 16:08:14;;;;;;;1.80;0.60;;;9.30;81.50;;;;;;4976354;28;20517;-70
2023/03/26 16:10:50;;;;;;;1.90;0.70;;;9.50;81.70;;;;;;4975614;28;20540;-70
2023/03/26 16:13:37;;;;;;;1.90;0.70;;;9.40;81.80;;;;;;4975633;28;20997;-70
2023/03/26 16:16:23;;;;;;;1.80;0.60;;;9.30;81.10;;;;;;4976050;28;20450;-70
2023/03/26 16:18:57;;;;;;;2.20;0.70;;;9.50;81.90;;;;;;4975079;28;20489;-70
2023/03/26 16:21:45;;;;;;;1.80;0.70;;;9.50;80.60;;;;;;4975938;28;20442;-70
2023/03/26 16:24:23;;;;;;;2.13;0.73;;;9.30;81.70;;;;;;4975826;28;20485;-70
2023/03/26 16:27:06;;;;;;;2.10;0.60;;;9.30;82.30;;;;;;4975539;28;20433;-70
2023/03/26 16:29:34;;;;;;;2.50;0.67;;;9.30;81.30;;;;;;4975752;28;20481;-70
2023/03/26 16:32:27;;;;;;;1.90;0.70;;;9.30;82.30;;;;;;4975436;28;20498;-70
2023/03/26 16:34:58;;;;;;;1.80;0.50;;;9.10;81.80;;;;;;4966350;28;20554;-70
2023/03/26 16:37:48;;;;;;;1.90;0.60;;;9.20;83.10;;;;;;4975540;28;20485;-72
2023/03/26 16:40:58;;;;;;;2.00;0.60;;;9.00;82.10;;;;;;4975494;28;20443;-70